Time;durP1;ratioP1;P1;durP2;ratioP2;P2;SDS_P1;SDS_P2;PMS_P1;PMS_P2;Temp;Humidity;BMP_temperature;BMP_pressure;BME280_temperature;BME280_humidity;BME280_pressure;Samples;Min_cycle;Max_cycle;Signal;HPM_P1;HPM_P2
2022/11/22 00:00:41;;;;;;;54.60;25.07;;;-0.70;99.90;;;;;;8370047;28;20213;-78
2022/11/22 00:04:41;;;;;;;54.57;24.83;;;-0.70;99.90;;;;;;8366796;28;20185;-78
2022/11/22 00:08:42;;;;;;;49.03;24.10;;;-0.70;99.90;;;;;;8372028;28;20181;-79
2022/11/22 00:12:44;;;;;;;54.73;24.70;;;-0.70;99.90;;;;;;8366451;28;20277;-78
2022/11/22 00:16:45;;;;;;;50.60;22.73;;;-0.70;99.90;;;;;;8369995;28;20190;-79
2022/11/22 00:20:45;;;;;;;46.10;21.63;;;-0.60;99.90;;;;;;8375380;28;20228;-78
2022/11/22 00:24:46;;;;;;;46.43;22.37;;;-0.60;99.90;;;;;;8373732;28;20189;-80
2022/11/22 00:28:47;;;;;;;41.67;22.33;;;-0.60;99.90;;;;;;8368425;28;20202;-79
2022/11/22 00:32:48;;;;;;;44.83;22.97;;;-0.50;99.90;;;;;;8368616;28;20209;-80
2022/11/22 00:36:49;;;;;;;44.20;23.23;;;-0.50;99.90;;;;;;8366370;28;20181;-80
2022/11/22 00:40:49;;;;;;;46.43;23.10;;;-0.50;99.90;;;;;;8363345;28;20276;-80
2022/11/22 00:44:50;;;;;;;47.00;23.27;;;-0.40;99.90;;;;;;8365986;28;20185;-80
2022/11/22 00:48:51;;;;;;;46.60;22.47;;;-0.40;99.90;;;;;;8364635;28;20185;-79
2022/11/22 00:52:52;;;;;;;46.47;21.47;;;-0.40;99.90;;;;;;8366687;28;20319;-80
2022/11/22 00:56:53;;;;;;;48.07;23.70;;;-0.30;99.90;;;;;;8365780;28;20217;-80
2022/11/22 01:00:53;;;;;;;45.10;22.47;;;-0.40;99.90;;;;;;8364443;28;20262;-80
2022/11/22 01:04:54;;;;;;;51.40;24.80;;;-0.30;99.90;;;;;;8369336;28;20192;-80
2022/11/22 01:08:55;;;;;;;56.33;25.03;;;-0.30;99.90;;;;;;8364549;28;20212;-80
2022/11/22 01:12:57;;;;;;;48.23;23.47;;;-0.30;99.90;;;;;;8370271;28;20202;-80
2022/11/22 01:16:58;;;;;;;48.43;24.17;;;-0.20;99.90;;;;;;8373121;28;20462;-79
2022/11/22 01:20:58;;;;;;;46.43;22.80;;;-0.20;99.90;;;;;;8365306;28;20185;-80
2022/11/22 01:24:59;;;;;;;51.13;22.47;;;-0.20;99.90;;;;;;8371644;28;20189;-80
2022/11/22 01:29:00;;;;;;;41.83;21.77;;;-0.20;99.90;;;;;;8366027;28;20197;-80
2022/11/22 01:33:01;;;;;;;41.80;21.10;;;-0.20;99.90;;;;;;8367209;28;20454;-81
2022/11/22 01:37:02;;;;;;;45.07;21.43;;;-0.20;99.90;;;;;;8364456;28;20177;-80
2022/11/22 01:41:03;;;;;;;42.87;22.13;;;-0.10;99.90;;;;;;8365001;28;20233;-79
2022/11/22 01:45:28;;;;;;;46.33;21.30;;;-0.10;99.90;;;;;;8368129;28;20189;-80
2022/11/22 01:49:32;;;;;;;44.07;22.20;;;-0.10;99.90;;;;;;8375302;28;20194;-80
2022/11/22 01:53:37;;;;;;;40.60;20.50;;;-0.10;99.90;;;;;;8367971;28;20302;-79
2022/11/22 01:57:40;;;;;;;37.13;20.47;;;-0.10;99.90;;;;;;8368881;28;20217;-80
2022/11/22 02:01:41;;;;;;;36.37;18.93;;;-0.10;99.90;;;;;;8367600;28;20504;-80
2022/11/22 02:05:44;;;;;;;40.83;21.50;;;0.00;99.90;;;;;;8369303;28;20250;-80
2022/11/22 02:09:46;;;;;;;38.07;20.47;;;0.00;99.90;;;;;;8372518;28;20305;-80
2022/11/22 02:13:50;;;;;;;40.73;19.80;;;0.00;99.90;;;;;;8375676;28;20206;-80
2022/11/22 02:17:51;;;;;;;38.03;20.27;;;0.00;99.90;;;;;;8370528;28;20213;-80
2022/11/22 02:22:00;;;;;;;35.73;20.00;;;0.00;99.90;;;;;;8371926;28;20204;-81
2022/11/22 02:26:02;;;;;;;36.53;18.67;;;0.00;99.90;;;;;;8371185;28;20200;-80
2022/11/22 02:30:03;;;;;;;45.53;21.23;;;0.00;99.90;;;;;;8370526;28;20194;-78
2022/11/22 02:34:04;;;;;;;42.63;21.37;;;0.00;99.90;;;;;;8370240;28;20197;-78
2022/11/22 02:38:14;;;;;;;43.27;20.97;;;0.00;99.90;;;;;;8367576;28;20188;-78
2022/11/22 02:42:15;;;;;;;43.90;21.43;;;0.00;99.90;;;;;;8376139;28;20492;-78
2022/11/22 02:46:19;;;;;;;40.97;21.00;;;0.00;99.90;;;;;;8366717;28;20269;-78
2022/11/22 02:50:20;;;;;;;42.67;21.13;;;0.00;99.90;;;;;;8373118;28;20283;-79
2022/11/22 02:54:21;;;;;;;45.40;22.57;;;0.00;99.90;;;;;;8371052;28;20194;-78
2022/11/22 02:58:21;;;;;;;39.30;20.57;;;0.00;99.90;;;;;;8367973;28;20387;-78
2022/11/22 03:02:22;;;;;;;40.83;21.20;;;0.00;99.90;;;;;;8371276;28;20182;-79
2022/11/22 03:06:24;;;;;;;43.23;20.97;;;0.00;99.90;;;;;;8364241;28;20209;-79
2022/11/22 03:10:25;;;;;;;42.60;19.77;;;0.00;99.90;;;;;;8369406;28;20276;-79
2022/11/22 03:14:27;;;;;;;42.00;19.90;;;0.10;99.90;;;;;;8370755;28;20204;-78
2022/11/22 03:18:27;;;;;;;46.97;21.63;;;0.00;99.90;;;;;;8370776;28;20250;-79
2022/11/22 03:22:28;;;;;;;40.73;21.47;;;0.10;99.90;;;;;;8370190;28;20181;-79
2022/11/22 03:26:29;;;;;;;48.03;23.10;;;0.10;99.90;;;;;;8372271;28;20216;-78
2022/11/22 03:30:30;;;;;;;45.67;21.87;;;0.10;99.90;;;;;;8374362;28;20205;-78
2022/11/22 03:34:30;;;;;;;45.30;22.67;;;0.10;99.90;;;;;;8375960;28;20301;-79
2022/11/22 03:38:34;;;;;;;43.10;21.37;;;0.10;99.90;;;;;;8371479;28;20186;-78
2022/11/22 03:42:34;;;;;;;41.33;20.83;;;0.20;99.90;;;;;;8366267;28;20212;-78
2022/11/22 03:46:35;;;;;;;47.63;20.80;;;0.20;99.90;;;;;;8368246;28;20185;-79
2022/11/22 03:50:36;;;;;;;43.63;19.03;;;0.20;99.90;;;;;;8366435;28;20190;-78
2022/11/22 03:54:37;;;;;;;42.10;21.17;;;0.20;99.90;;;;;;8369618;28;20266;-78
2022/11/22 03:58:38;;;;;;;44.33;21.23;;;0.30;99.90;;;;;;8367825;28;20336;-78
2022/11/22 04:02:38;;;;;;;47.73;23.80;;;0.30;99.90;;;;;;8366646;28;20205;-79
2022/11/22 04:06:39;;;;;;;44.63;24.83;;;0.30;99.90;;;;;;8366494;28;20211;-79
2022/11/22 04:10:40;;;;;;;45.13;23.53;;;0.30;99.90;;;;;;8366140;28;20190;-78
2022/11/22 04:19:00;;;;;;;37.00;17.90;;;0.30;99.90;;;;;;8367837;28;20196;-79
2022/11/22 04:23:07;;;;;;;39.77;18.23;;;0.30;99.90;;;;;;8365481;28;20177;-79
2022/11/22 04:27:08;;;;;;;43.50;20.73;;;0.30;99.90;;;;;;8371992;28;20273;-79
2022/11/22 04:35:28;;;;;;;51.03;22.50;;;0.20;99.90;;;;;;8367675;28;20184;-79
2022/11/22 04:39:29;;;;;;;46.87;20.30;;;0.20;99.90;;;;;;8368234;28;20293;-80
2022/11/22 04:47:57;;;;;;;50.40;25.73;;;0.20;99.90;;;;;;8364314;28;20193;-79
2022/11/22 04:56:18;;;;;;;54.43;23.53;;;0.20;99.90;;;;;;8365418;28;20232;-80
2022/11/22 05:00:19;;;;;;;50.30;20.60;;;0.20;99.90;;;;;;8381802;28;20253;-80
2022/11/22 05:04:19;;;;;;;46.77;21.07;;;0.20;99.90;;;;;;8382441;28;20181;-79
2022/11/22 05:08:20;;;;;;;45.67;18.77;;;0.20;99.90;;;;;;8367137;28;20223;-80
2022/11/22 05:12:21;;;;;;;88.70;37.23;;;0.20;99.90;;;;;;8370910;28;20212;-79
2022/11/22 05:16:21;;;;;;;41.83;18.83;;;0.20;99.90;;;;;;8368125;28;20177;-79
2022/11/22 05:20:22;;;;;;;53.27;21.37;;;0.20;99.90;;;;;;8368303;28;20180;-79
2022/11/22 05:24:23;;;;;;;38.60;18.13;;;0.20;99.90;;;;;;8365643;28;20209;-80
2022/11/22 05:28:28;;;;;;;39.60;16.80;;;0.20;99.90;;;;;;8365891;28;20201;-80
2022/11/22 05:32:30;;;;;;;53.87;23.80;;;0.20;99.90;;;;;;8371545;28;20204;-79
2022/11/22 05:36:32;;;;;;;44.70;19.87;;;0.20;99.90;;;;;;8362288;28;20185;-80
2022/11/22 05:40:33;;;;;;;42.27;20.67;;;0.10;99.90;;;;;;8371062;28;20219;-79
2022/11/22 05:44:34;;;;;;;32.53;15.57;;;0.10;99.90;;;;;;8369557;28;20370;-79
2022/11/22 05:48:36;;;;;;;36.23;16.13;;;0.10;99.90;;;;;;8364682;28;20181;-79
2022/11/22 05:52:37;;;;;;;34.80;15.70;;;0.10;99.90;;;;;;8368093;28;20206;-79
2022/11/22 05:56:38;;;;;;;35.80;16.83;;;0.10;99.90;;;;;;8369716;28;20291;-81
2022/11/22 06:00:38;;;;;;;33.33;15.80;;;0.10;99.90;;;;;;8364877;28;20190;-79
2022/11/22 06:04:39;;;;;;;30.57;15.10;;;0.10;99.90;;;;;;8368758;28;20186;-80
2022/11/22 06:08:43;;;;;;;34.97;15.20;;;0.00;99.90;;;;;;8367667;28;20191;-80
2022/11/22 06:12:44;;;;;;;30.93;15.60;;;0.10;99.90;;;;;;8366931;28;20240;-79
2022/11/22 06:16:45;;;;;;;33.17;15.00;;;0.10;99.90;;;;;;8369673;28;20677;-80
2022/11/22 06:20:46;;;;;;;32.50;15.90;;;0.10;99.90;;;;;;8366287;28;20169;-79
2022/11/22 06:24:46;;;;;;;38.80;16.60;;;0.10;99.90;;;;;;8364344;28;20341;-80
2022/11/22 06:28:48;;;;;;;32.27;13.73;;;0.10;99.90;;;;;;8372482;28;20249;-80
2022/11/22 06:32:48;;;;;;;36.30;15.00;;;0.00;99.90;;;;;;8379494;28;20319;-79
2022/11/22 06:36:49;;;;;;;34.23;14.20;;;0.00;99.90;;;;;;8379676;28;20181;-80
2022/11/22 06:40:50;;;;;;;38.87;16.00;;;0.00;99.90;;;;;;8368827;28;20179;-79
2022/11/22 06:44:51;;;;;;;32.37;16.67;;;0.00;99.90;;;;;;8373724;28;20221;-79
2022/11/22 06:48:52;;;;;;;29.20;15.07;;;0.00;99.90;;;;;;8367813;28;20181;-79
2022/11/22 06:52:53;;;;;;;43.80;18.13;;;0.00;99.90;;;;;;8365020;28;20204;-80
2022/11/22 06:56:54;;;;;;;36.77;16.27;;;0.00;99.90;;;;;;8369459;28;20197;-80
2022/11/22 07:01:05;;;;;;;35.87;16.30;;;0.00;99.90;;;;;;8368813;28;20246;-79
2022/11/22 07:05:06;;;;;;;29.30;14.60;;;0.00;99.90;;;;;;8371790;28;20224;-79
2022/11/22 07:09:09;;;;;;;28.37;14.47;;;-0.10;99.90;;;;;;8373016;28;20177;-78
2022/11/22 07:13:10;;;;;;;30.37;14.73;;;-0.10;99.90;;;;;;8368499;28;20231;-79
2022/11/22 07:17:11;;;;;;;43.90;17.33;;;-0.10;99.90;;;;;;8367945;28;20265;-79
2022/11/22 07:21:18;;;;;;;37.07;16.43;;;0.00;99.90;;;;;;8367704;28;20181;-79
2022/11/22 07:25:18;;;;;;;32.47;14.77;;;0.00;99.90;;;;;;8372154;28;20290;-79
2022/11/22 07:29:19;;;;;;;33.20;16.20;;;0.00;99.90;;;;;;8370274;28;20200;-79
2022/11/22 07:33:20;;;;;;;27.60;13.37;;;0.00;99.90;;;;;;8369437;28;20210;-78
2022/11/22 07:37:21;;;;;;;26.37;13.20;;;0.00;99.90;;;;;;8365929;28;20177;-78
2022/11/22 07:41:22;;;;;;;28.87;15.03;;;0.00;99.90;;;;;;8367764;28;20177;-79
2022/11/22 07:45:23;;;;;;;31.40;15.93;;;0.00;99.90;;;;;;8371172;28;20185;-80
2022/11/22 07:49:24;;;;;;;35.60;17.40;;;0.00;99.90;;;;;;8360333;28;20250;-79
2022/11/22 07:53:24;;;;;;;29.63;14.70;;;0.10;99.90;;;;;;8374961;28;20205;-79
2022/11/22 07:57:25;;;;;;;30.73;15.70;;;0.10;99.90;;;;;;8373275;28;20563;-79
2022/11/22 08:01:26;;;;;;;29.13;13.97;;;0.10;99.90;;;;;;8373865;28;20178;-79
2022/11/22 08:05:27;;;;;;;39.33;19.67;;;0.10;99.90;;;;;;8366293;28;20173;-78
2022/11/22 08:09:28;;;;;;;41.73;19.20;;;0.20;99.90;;;;;;8371103;28;20181;-79
2022/11/22 08:13:30;;;;;;;34.90;15.77;;;0.20;99.90;;;;;;8367073;28;20304;-80
2022/11/22 08:17:31;;;;;;;51.60;20.90;;;0.30;99.90;;;;;;8373727;28;20292;-79
2022/11/22 08:21:31;;;;;;;61.10;26.23;;;0.20;99.90;;;;;;8371500;28;20185;-79
2022/11/22 08:25:32;;;;;;;28.33;15.37;;;0.30;99.90;;;;;;8370204;28;20185;-79
2022/11/22 08:29:33;;;;;;;39.07;18.20;;;0.30;99.90;;;;;;8375532;28;20204;-78
2022/11/22 08:33:34;;;;;;;33.97;17.63;;;0.30;99.90;;;;;;8365676;28;20308;-78
2022/11/22 08:37:35;;;;;;;31.17;17.67;;;0.30;99.90;;;;;;8366031;28;20186;-79
2022/11/22 08:41:36;;;;;;;30.67;16.57;;;0.40;99.90;;;;;;8363632;28;20193;-79
2022/11/22 08:45:37;;;;;;;34.83;17.93;;;0.40;99.90;;;;;;8366888;28;20188;-78
2022/11/22 08:49:37;;;;;;;32.47;17.63;;;0.50;99.90;;;;;;8371100;28;20189;-78
2022/11/22 08:53:40;;;;;;;31.03;17.20;;;0.60;99.90;;;;;;8368525;28;20251;-78
2022/11/22 08:57:41;;;;;;;34.93;18.23;;;0.80;99.90;;;;;;8372594;28;20213;-78
2022/11/22 09:01:42;;;;;;;26.97;15.83;;;0.90;99.90;;;;;;8363645;28;20181;-78
2022/11/22 09:05:43;;;;;;;34.53;18.10;;;0.90;99.90;;;;;;8368347;28;20891;-80
2022/11/22 09:09:44;;;;;;;34.00;17.23;;;1.00;99.90;;;;;;8371324;28;20196;-78
2022/11/22 09:13:45;;;;;;;27.60;15.23;;;1.10;99.90;;;;;;8371467;28;20213;-77
2022/11/22 09:17:46;;;;;;;31.50;16.40;;;1.10;99.90;;;;;;8366878;28;20265;-78
2022/11/22 09:21:47;;;;;;;27.53;15.20;;;1.20;99.90;;;;;;8368224;28;20181;-77
2022/11/22 09:25:54;;;;;;;40.80;19.20;;;1.30;99.90;;;;;;8372198;28;20185;-78
2022/11/22 09:29:55;;;;;;;66.07;31.10;;;1.40;99.90;;;;;;8364314;28;20197;-78
2022/11/22 09:33:56;;;;;;;55.17;25.47;;;1.50;99.90;;;;;;8367307;28;20287;-78
2022/11/22 09:37:57;;;;;;;41.67;21.47;;;1.50;99.90;;;;;;8366049;28;20193;-78
2022/11/22 09:42:32;;;;;;;61.97;29.47;;;1.60;99.90;;;;;;8361547;28;20249;-78
2022/11/22 09:46:52;;;;;;;55.47;29.63;;;1.60;99.90;;;;;;8370955;28;20189;-79
2022/11/22 09:51:30;;;;;;;45.23;24.17;;;1.70;99.90;;;;;;8364553;28;20185;-78
2022/11/22 09:55:33;;;;;;;44.60;24.00;;;1.80;99.90;;;;;;8356307;28;20221;-78
2022/11/22 09:59:37;;;;;;;36.53;20.63;;;1.80;99.90;;;;;;8378144;28;20209;-78
2022/11/22 10:04:21;;;;;;;54.53;25.67;;;1.80;99.90;;;;;;8361249;28;20182;-78
2022/11/22 10:08:33;;;;;;;35.13;19.03;;;1.80;99.90;;;;;;8370614;28;20194;-78
2022/11/22 10:12:47;;;;;;;47.07;26.10;;;1.80;99.90;;;;;;8379358;28;20227;-79
2022/11/22 10:16:56;;;;;;;30.63;17.27;;;1.90;99.90;;;;;;8379999;28;20196;-78
2022/11/22 10:20:56;;;;;;;39.80;20.97;;;1.90;99.90;;;;;;8371962;28;20173;-79
2022/11/22 10:25:11;;;;;;;43.30;22.83;;;2.00;99.90;;;;;;8372925;28;20182;-78
2022/11/22 10:30:00;;;;;;;37.37;20.07;;;2.10;99.90;;;;;;8374945;28;20226;-78
2022/11/22 10:34:32;;;;;;;31.57;18.83;;;2.10;99.90;;;;;;8367804;28;20213;-77
2022/11/22 10:39:08;;;;;;;30.10;16.47;;;2.10;99.90;;;;;;8374598;28;20182;-78
2022/11/22 10:43:27;;;;;;;30.50;17.40;;;2.10;99.90;;;;;;8377782;28;20203;-78
2022/11/22 10:47:42;;;;;;;36.17;20.33;;;2.10;99.90;;;;;;8372330;28;20193;-78
2022/11/22 10:51:59;;;;;;;28.83;16.87;;;2.10;99.90;;;;;;8375693;28;20218;-78
2022/11/22 10:56:15;;;;;;;31.80;17.27;;;2.10;99.90;;;;;;8370885;28;20270;-77
2022/11/22 11:00:24;;;;;;;39.47;24.00;;;2.10;99.90;;;;;;8372807;28;20187;-76
2022/11/22 11:04:38;;;;;;;33.00;20.60;;;2.10;99.90;;;;;;8368001;28;20178;-77
2022/11/22 11:08:45;;;;;;;34.07;19.93;;;2.20;99.90;;;;;;8386378;28;20173;-77
2022/11/22 11:12:58;;;;;;;34.43;20.70;;;2.20;99.90;;;;;;8367075;28;20599;-77
2022/11/22 11:17:00;;;;;;;35.40;21.47;;;2.30;99.90;;;;;;8371441;28;20183;-78
2022/11/22 11:21:00;;;;;;;43.97;27.87;;;2.30;99.90;;;;;;8364927;28;20306;-77
2022/11/22 11:25:26;;;;;;;33.70;21.47;;;2.50;99.90;;;;;;8372603;28;20208;-78
2022/11/22 11:29:55;;;;;;;40.13;25.13;;;2.60;99.90;;;;;;8362823;28;20209;-77
2022/11/22 11:34:24;;;;;;;52.07;30.37;;;2.70;99.90;;;;;;8365343;28;20635;-77
2022/11/22 11:38:30;;;;;;;32.13;18.53;;;2.90;99.90;;;;;;8361653;28;20663;-78
2022/11/22 11:42:34;;;;;;;35.03;21.33;;;2.90;99.90;;;;;;8368137;28;20451;-78
2022/11/22 11:46:38;;;;;;;54.70;28.13;;;2.80;99.90;;;;;;8372083;28;20226;-77
2022/11/22 11:50:39;;;;;;;44.57;25.13;;;2.80;99.90;;;;;;8373957;28;20186;-78
2022/11/22 11:54:43;;;;;;;33.30;18.00;;;2.80;99.90;;;;;;8372127;28;20209;-78
2022/11/22 11:58:51;;;;;;;30.80;18.23;;;2.90;99.90;;;;;;8371855;28;20204;-78
2022/11/22 12:03:00;;;;;;;28.40;16.90;;;3.10;99.90;;;;;;8372746;28;20188;-78
2022/11/22 12:07:14;;;;;;;25.73;15.57;;;3.10;99.90;;;;;;8370587;28;20178;-77
2022/11/22 12:11:45;;;;;;;34.10;18.17;;;3.20;99.90;;;;;;8367587;28;20182;-78
2022/11/22 12:16:13;;;;;;;45.97;22.50;;;3.30;99.90;;;;;;8367574;28;20193;-79
2022/11/22 12:20:22;;;;;;;122.17;53.07;;;3.40;99.90;;;;;;8370815;28;20230;-78
2022/11/22 12:24:36;;;;;;;49.37;26.63;;;3.40;99.90;;;;;;8369959;28;20186;-78
2022/11/22 12:28:38;;;;;;;48.57;26.27;;;3.30;99.90;;;;;;8372874;28;20246;-78
2022/11/22 12:33:14;;;;;;;32.63;19.37;;;3.10;99.90;;;;;;8368528;28;20213;-78
2022/11/22 12:37:21;;;;;;;30.57;18.37;;;3.00;99.90;;;;;;8368168;28;20249;-78
2022/11/22 12:41:26;;;;;;;33.63;18.47;;;2.90;99.90;;;;;;8370989;28;20186;-78
2022/11/22 12:45:39;;;;;;;31.40;18.80;;;2.90;99.90;;;;;;8367848;28;20261;-78
2022/11/22 12:49:47;;;;;;;29.37;18.00;;;2.90;99.90;;;;;;8367399;28;20182;-78
2022/11/22 12:53:50;;;;;;;34.10;18.83;;;2.90;99.90;;;;;;8368100;28;20208;-78
2022/11/22 12:58:19;;;;;;;30.90;17.63;;;3.00;99.90;;;;;;8361858;28;20197;-78
2022/11/22 13:03:00;;;;;;;35.20;20.53;;;2.90;99.90;;;;;;8369026;28;20195;-78
2022/11/22 13:07:24;;;;;;;29.37;17.70;;;2.90;99.90;;;;;;8365398;28;20219;-78
2022/11/22 13:11:36;;;;;;;36.63;22.20;;;2.80;99.90;;;;;;8367008;28;20207;-79
2022/11/22 13:15:39;;;;;;;31.93;19.13;;;2.80;99.90;;;;;;8372995;28;20206;-78
2022/11/22 13:19:49;;;;;;;34.13;19.67;;;2.80;99.90;;;;;;8366597;28;20182;-78
2022/11/22 13:24:11;;;;;;;29.30;18.33;;;2.70;99.90;;;;;;8366448;28;20177;-78
2022/11/22 13:28:20;;;;;;;28.60;17.10;;;2.70;99.90;;;;;;8366720;28;20337;-78
2022/11/22 13:32:22;;;;;;;42.80;22.87;;;2.70;99.90;;;;;;8358966;28;20201;-80
2022/11/22 13:36:26;;;;;;;40.20;20.50;;;2.60;99.90;;;;;;8366096;28;20182;-80
2022/11/22 13:40:28;;;;;;;36.27;20.10;;;2.60;99.90;;;;;;8380281;28;20184;-77
2022/11/22 13:44:29;;;;;;;33.00;17.13;;;2.50;99.90;;;;;;8382728;28;20188;-79
2022/11/22 13:48:39;;;;;;;30.03;17.33;;;2.50;99.90;;;;;;8367752;28;20281;-79
2022/11/22 13:52:51;;;;;;;32.23;17.83;;;2.50;99.90;;;;;;8374755;28;20193;-79
2022/11/22 13:56:59;;;;;;;52.73;29.27;;;2.50;99.90;;;;;;8370442;28;20208;-79
2022/11/22 14:01:00;;;;;;;56.87;31.33;;;2.50;99.90;;;;;;8373932;28;20246;-80
2022/11/22 14:05:01;;;;;;;33.20;18.97;;;2.50;99.90;;;;;;8376547;28;20235;-76
2022/11/22 14:09:28;;;;;;;35.13;18.60;;;2.40;99.90;;;;;;8370403;28;20192;-79
2022/11/22 14:13:54;;;;;;;31.53;18.47;;;2.40;99.90;;;;;;8371092;28;20244;-80
2022/11/22 14:18:33;;;;;;;30.53;16.33;;;2.40;99.90;;;;;;8375673;28;20273;-79
2022/11/22 14:22:55;;;;;;;28.00;15.87;;;2.40;99.90;;;;;;8371595;28;20196;-80
2022/11/22 14:26:56;;;;;;;30.97;16.33;;;2.30;99.90;;;;;;8369249;28;20208;-80
2022/11/22 14:30:57;;;;;;;35.90;18.60;;;2.30;99.90;;;;;;8372560;28;20201;-79
2022/11/22 14:35:04;;;;;;;46.83;23.13;;;2.30;99.90;;;;;;8376493;28;20211;-79
2022/11/22 14:39:43;;;;;;;53.87;29.07;;;2.30;99.90;;;;;;8369878;28;20181;-79
2022/11/22 14:43:45;;;;;;;83.77;48.00;;;2.30;99.90;;;;;;8377817;28;20199;-79
2022/11/22 14:48:08;;;;;;;56.10;32.40;;;2.30;99.90;;;;;;8377427;28;20200;-80
2022/11/22 14:52:24;;;;;;;65.80;33.23;;;2.30;99.90;;;;;;8364821;28;20196;-80
2022/11/22 14:56:35;;;;;;;112.80;45.13;;;2.20;99.90;;;;;;8377329;28;20183;-79
2022/11/22 15:00:41;;;;;;;93.13;43.63;;;2.20;99.90;;;;;;8363038;28;20840;-78
2022/11/22 15:05:01;;;;;;;92.77;44.33;;;2.20;99.90;;;;;;8364106;28;20186;-78
2022/11/22 15:09:17;;;;;;;129.27;56.43;;;2.20;99.90;;;;;;8377103;28;20182;-79
2022/11/22 15:13:44;;;;;;;225.47;87.57;;;2.20;99.90;;;;;;8375811;28;20250;-78
2022/11/22 15:17:49;;;;;;;342.20;129.67;;;2.20;99.90;;;;;;8366534;28;20257;-79
2022/11/22 15:22:22;;;;;;;280.00;111.87;;;2.20;99.90;;;;;;8377609;28;20184;-78
2022/11/22 15:26:26;;;;;;;262.63;121.30;;;2.20;99.90;;;;;;8375787;28;20178;-78
2022/11/22 15:30:28;;;;;;;118.83;56.77;;;2.20;99.90;;;;;;8367906;28;20626;-78
2022/11/22 15:34:29;;;;;;;111.03;53.13;;;2.20;99.90;;;;;;8379332;28;20201;-78
2022/11/22 15:38:30;;;;;;;103.10;52.40;;;2.10;99.90;;;;;;8372235;28;20190;-79
2022/11/22 15:42:31;;;;;;;81.00;42.87;;;2.10;99.90;;;;;;8371764;28;20216;-79
2022/11/22 15:46:35;;;;;;;90.37;47.57;;;2.10;99.90;;;;;;8369188;28;20396;-78
2022/11/22 15:50:37;;;;;;;99.80;52.17;;;2.10;99.90;;;;;;8367804;28;20231;-79
2022/11/22 15:54:38;;;;;;;85.70;48.13;;;2.10;99.90;;;;;;8370895;28;20296;-79
2022/11/22 15:58:44;;;;;;;80.77;46.07;;;2.10;99.90;;;;;;8371770;28;20269;-79
2022/11/22 16:02:51;;;;;;;81.27;44.33;;;2.10;99.90;;;;;;8378434;28;20177;-79
2022/11/22 16:06:54;;;;;;;90.23;42.40;;;2.10;99.90;;;;;;8385763;28;20194;-79
2022/11/22 16:10:55;;;;;;;102.50;46.53;;;2.00;99.90;;;;;;8366275;28;20189;-79
2022/11/22 16:14:56;;;;;;;80.73;37.83;;;2.00;99.90;;;;;;8370612;28;20305;-79
2022/11/22 16:19:22;;;;;;;83.23;42.20;;;2.00;99.90;;;;;;8367326;28;20247;-79
2022/11/22 16:23:25;;;;;;;94.37;39.40;;;2.00;99.90;;;;;;8376792;28;20195;-79
2022/11/22 16:27:26;;;;;;;107.30;41.33;;;1.90;99.90;;;;;;8370702;28;20451;-79
2022/11/22 16:31:31;;;;;;;101.63;41.60;;;1.90;99.90;;;;;;8368151;28;20190;-79
2022/11/22 16:35:31;;;;;;;99.27;39.17;;;2.00;99.90;;;;;;8372642;28;20288;-79
2022/11/22 16:39:32;;;;;;;116.83;48.87;;;2.00;99.90;;;;;;8366499;28;20191;-77
2022/11/22 16:43:34;;;;;;;127.07;49.70;;;2.00;99.90;;;;;;8370423;28;20220;-78
2022/11/22 16:47:35;;;;;;;122.93;47.53;;;2.00;99.90;;;;;;8369871;28;20287;-78
2022/11/22 16:51:36;;;;;;;116.80;44.27;;;2.00;99.90;;;;;;8367184;28;20339;-80
2022/11/22 16:55:36;;;;;;;94.87;41.40;;;2.00;99.90;;;;;;8369209;28;20263;-79
2022/11/22 16:59:37;;;;;;;66.50;34.33;;;2.10;99.90;;;;;;8364933;28;20276;-77
2022/11/22 17:03:39;;;;;;;56.80;28.37;;;2.10;99.90;;;;;;8368016;28;20189;-77
2022/11/22 17:07:40;;;;;;;49.40;23.77;;;2.10;99.90;;;;;;8371102;28;20393;-77
2022/11/22 17:11:43;;;;;;;42.17;22.40;;;2.10;99.90;;;;;;8372534;28;20196;-79
2022/11/22 17:15:44;;;;;;;42.00;20.07;;;2.10;99.90;;;;;;8371378;28;20224;-79
2022/11/22 17:19:45;;;;;;;43.57;21.67;;;2.10;99.90;;;;;;8370485;28;20259;-79
2022/11/22 17:23:48;;;;;;;55.37;27.93;;;2.00;99.90;;;;;;8366127;28;20249;-79
2022/11/22 17:27:49;;;;;;;60.30;30.83;;;2.00;99.90;;;;;;8371566;28;20225;-78
2022/11/22 17:31:50;;;;;;;65.63;31.90;;;2.00;99.90;;;;;;8378136;28;20248;-79
2022/11/22 17:35:51;;;;;;;151.47;63.73;;;2.00;99.90;;;;;;8371226;28;20201;-79
2022/11/22 17:39:52;;;;;;;155.33;70.57;;;2.00;99.90;;;;;;8368469;28;20182;-78
2022/11/22 17:43:54;;;;;;;109.50;55.23;;;2.00;99.90;;;;;;8375532;28;20238;-79
2022/11/22 17:47:55;;;;;;;92.77;46.17;;;2.00;99.90;;;;;;8372531;28;20178;-79
2022/11/22 17:51:56;;;;;;;54.70;28.93;;;2.00;99.90;;;;;;8372154;28;20666;-79
2022/11/22 17:55:57;;;;;;;53.70;28.37;;;2.00;99.90;;;;;;8365797;28;20252;-80
2022/11/22 17:59:58;;;;;;;50.50;27.03;;;2.00;99.90;;;;;;8371629;28;20348;-77
2022/11/22 18:03:59;;;;;;;51.30;26.03;;;2.00;99.90;;;;;;8364349;28;20189;-80
2022/11/22 18:08:00;;;;;;;59.00;27.33;;;1.90;99.90;;;;;;8373080;28;20189;-78
2022/11/22 18:12:01;;;;;;;60.13;30.17;;;2.00;99.90;;;;;;8368658;28;20194;-78
2022/11/22 18:16:05;;;;;;;70.90;37.60;;;1.90;99.90;;;;;;8368124;28;20182;-79
2022/11/22 18:20:06;;;;;;;110.13;52.40;;;2.00;99.90;;;;;;8382194;28;20198;-78
2022/11/22 18:24:14;;;;;;;95.93;52.67;;;2.00;99.90;;;;;;8370276;28;20189;-79
2022/11/22 18:28:15;;;;;;;100.57;49.23;;;2.00;99.90;;;;;;8367319;28;20200;-80
2022/11/22 18:32:16;;;;;;;86.43;45.07;;;1.90;99.90;;;;;;8372786;28;20178;-80
2022/11/22 18:36:23;;;;;;;88.53;45.57;;;1.90;99.90;;;;;;8375149;28;20181;-79
2022/11/22 18:40:24;;;;;;;70.93;39.80;;;1.90;99.90;;;;;;8377787;28;20178;-79
2022/11/22 18:44:25;;;;;;;61.03;32.30;;;1.90;99.90;;;;;;8369513;28;20200;-80
2022/11/22 18:48:26;;;;;;;52.07;26.70;;;1.90;99.90;;;;;;8378106;28;20188;-80
2022/11/22 18:52:27;;;;;;;49.20;25.30;;;1.90;99.90;;;;;;8369936;28;20531;-79
2022/11/22 18:56:28;;;;;;;45.77;23.93;;;1.90;99.90;;;;;;8370301;28;20254;-79
2022/11/22 19:00:29;;;;;;;38.57;21.53;;;1.90;99.90;;;;;;8358971;28;20295;-80
2022/11/22 19:04:30;;;;;;;49.13;24.07;;;1.90;99.90;;;;;;8377931;28;20181;-79
2022/11/22 19:08:35;;;;;;;64.53;31.33;;;1.90;99.90;;;;;;8372581;28;20247;-78
2022/11/22 19:12:36;;;;;;;62.53;33.60;;;1.90;99.90;;;;;;8372026;28;20201;-78
2022/11/22 19:16:37;;;;;;;59.50;29.87;;;1.90;99.90;;;;;;8372534;28;20184;-79
2022/11/22 19:20:39;;;;;;;43.53;22.23;;;1.80;99.90;;;;;;8355291;28;20209;-79
2022/11/22 19:24:40;;;;;;;44.87;23.00;;;1.80;99.90;;;;;;8371019;28;20182;-79
2022/11/22 19:28:42;;;;;;;46.70;23.60;;;1.80;99.90;;;;;;8375474;28;20209;-79
2022/11/22 19:32:42;;;;;;;42.77;22.97;;;1.80;99.90;;;;;;8370344;28;20227;-77
2022/11/22 19:36:43;;;;;;;47.90;23.37;;;1.80;99.90;;;;;;8373330;28;20186;-78
2022/11/22 19:40:44;;;;;;;46.97;21.43;;;1.80;99.90;;;;;;8369810;28;20239;-78
2022/11/22 19:44:47;;;;;;;52.60;25.03;;;1.80;99.90;;;;;;8371161;28;20177;-79
2022/11/22 19:48:52;;;;;;;53.33;24.10;;;1.80;99.90;;;;;;8369811;28;20196;-79
2022/11/22 19:52:53;;;;;;;42.33;21.40;;;1.70;99.90;;;;;;8374398;28;20197;-78
2022/11/22 19:56:54;;;;;;;59.57;28.83;;;1.70;99.90;;;;;;8370045;28;20201;-78
2022/11/22 20:01:13;;;;;;;57.63;24.90;;;1.80;99.90;;;;;;8366636;28;20178;-79
2022/11/22 20:05:14;;;;;;;40.13;20.27;;;1.70;99.90;;;;;;8389881;28;20214;-78
2022/11/22 20:09:16;;;;;;;49.10;24.27;;;1.70;99.90;;;;;;8368397;28;20177;-78
2022/11/22 20:13:17;;;;;;;44.63;23.37;;;1.70;99.90;;;;;;8376167;28;20201;-79
2022/11/22 20:17:19;;;;;;;45.37;23.20;;;1.60;99.90;;;;;;8368711;28;20184;-79
2022/11/22 20:21:21;;;;;;;47.57;21.90;;;1.70;99.90;;;;;;8377949;28;20182;-79
2022/11/22 20:25:21;;;;;;;52.37;21.83;;;1.60;99.90;;;;;;8368879;28;20181;-79
2022/11/22 20:29:23;;;;;;;42.53;21.53;;;1.70;99.90;;;;;;8373601;28;20228;-78
2022/11/22 20:33:24;;;;;;;49.93;21.60;;;1.60;99.90;;;;;;8365635;28;20236;-78
2022/11/22 20:37:25;;;;;;;43.37;21.77;;;1.60;99.90;;;;;;8367487;28;20212;-78
2022/11/22 20:41:29;;;;;;;55.33;24.57;;;1.60;99.90;;;;;;8356785;28;20205;-79
2022/11/22 20:45:31;;;;;;;48.03;23.57;;;1.60;99.90;;;;;;8367762;28;20204;-79
2022/11/22 20:49:32;;;;;;;48.17;21.77;;;1.60;99.90;;;;;;8374463;28;20203;-78
2022/11/22 20:53:33;;;;;;;49.70;22.33;;;1.60;99.90;;;;;;8370686;28;20216;-78
2022/11/22 20:57:34;;;;;;;52.90;23.37;;;1.60;99.90;;;;;;8368373;28;20213;-78
2022/11/22 21:01:35;;;;;;;54.23;25.23;;;1.60;99.90;;;;;;8361317;28;20181;-78
2022/11/22 21:05:36;;;;;;;45.63;20.67;;;1.60;99.90;;;;;;8371557;28;20452;-79
2022/11/22 21:09:37;;;;;;;42.83;21.00;;;1.60;99.90;;;;;;8367996;28;20196;-78
2022/11/22 21:13:39;;;;;;;49.70;21.67;;;1.60;99.90;;;;;;8369976;28;20332;-78